Time;durP1;ratioP1;P1;durP2;ratioP2;P2;SDS_P1;SDS_P2;PMS_P1;PMS_P2;Temp;Humidity;BMP_temperature;BMP_pressure;BME280_temperature;BME280_humidity;BME280_pressure;Samples;Min_cycle;Max_cycle;Signal;HPM_P1;HPM_P2
2021/04/27 00:00:14;;;;;;;7.73;4.27;;;4.30;74.80;;;;;;5111624;28;20835;-72
2021/04/27 00:02:40;;;;;;;10.90;5.17;;;4.20;74.90;;;;;;5112502;28;20054;-73
2021/04/27 00:05:07;;;;;;;8.07;4.83;;;4.20;75.00;;;;;;5112274;28;20298;-72
2021/04/27 00:07:33;;;;;;;7.73;4.50;;;4.20;75.00;;;;;;5111790;28;20369;-72
2021/04/27 00:09:58;;;;;;;7.27;4.17;;;4.20;75.20;;;;;;5111614;28;20289;-73
2021/04/27 00:12:24;;;;;;;7.13;5.07;;;4.10;75.10;;;;;;5112407;28;20056;-73
2021/04/27 00:14:50;;;;;;;14.60;5.00;;;4.10;75.20;;;;;;5111471;28;20098;-73
2021/04/27 00:17:16;;;;;;;8.57;4.73;;;4.10;75.20;;;;;;5112424;28;20092;-73
2021/04/27 00:19:42;;;;;;;8.10;3.57;;;4.10;75.30;;;;;;5112140;28;20384;-73
2021/04/27 00:22:08;;;;;;;9.43;5.67;;;4.10;75.40;;;;;;5111239;28;20051;-73
2021/04/27 00:24:33;;;;;;;8.90;4.87;;;4.10;75.50;;;;;;5112234;28;20614;-73
2021/04/27 00:27:00;;;;;;;9.33;5.30;;;4.10;75.70;;;;;;5111353;28;20059;-73
2021/04/27 00:29:26;;;;;;;8.23;6.20;;;4.10;75.70;;;;;;5111366;28;20066;-72
2021/04/27 00:31:51;;;;;;;13.17;5.77;;;4.10;75.70;;;;;;5111782;28;20735;-73
2021/04/27 00:34:17;;;;;;;13.90;5.93;;;4.10;75.70;;;;;;5111952;28;20048;-73
2021/04/27 00:36:43;;;;;;;10.73;5.90;;;4.10;75.80;;;;;;5109858;28;20057;-72
2021/04/27 00:39:08;;;;;;;10.67;5.83;;;4.00;76.00;;;;;;5111659;28;20469;-72
2021/04/27 00:41:34;;;;;;;10.17;6.23;;;4.00;76.10;;;;;;5112050;28;20406;-73
2021/04/27 00:44:00;;;;;;;7.10;5.30;;;4.00;76.30;;;;;;5110674;28;20433;-72
2021/04/27 00:46:26;;;;;;;8.20;4.97;;;4.00;76.50;;;;;;5111841;28;20101;-72
2021/04/27 00:48:52;;;;;;;9.80;4.90;;;4.00;76.40;;;;;;5110744;28;20126;-72
2021/04/27 00:51:18;;;;;;;9.30;5.87;;;4.00;76.30;;;;;;5111543;28;20385;-72
2021/04/27 00:53:44;;;;;;;14.03;5.67;;;4.00;76.40;;;;;;5111761;28;20102;-72
2021/04/27 00:56:11;;;;;;;9.73;5.90;;;4.00;76.40;;;;;;5110771;28;20054;-71
2021/04/27 00:58:37;;;;;;;7.30;4.10;;;4.00;76.40;;;;;;5111710;28;20388;-74
2021/04/27 01:01:04;;;;;;;10.57;6.20;;;4.00;76.30;;;;;;5111365;28;20082;-72
2021/04/27 01:03:31;;;;;;;8.27;6.00;;;4.00;76.60;;;;;;5111055;28;20379;-73
2021/04/27 01:05:57;;;;;;;8.83;5.33;;;4.00;76.60;;;;;;5110922;28;20297;-72
2021/04/27 01:08:32;;;;;;;7.83;5.00;;;4.00;76.80;;;;;;5111909;28;20792;-72
2021/04/27 01:11:15;;;;;;;8.60;5.50;;;3.90;77.10;;;;;;5110210;28;20512;-72
2021/04/27 01:14:00;;;;;;;11.03;6.13;;;3.90;77.20;;;;;;5111489;28;20305;-72
2021/04/27 01:16:28;;;;;;;9.80;5.60;;;3.90;77.40;;;;;;5111459;28;20706;-72
2021/04/27 01:18:55;;;;;;;13.07;6.00;;;3.90;77.50;;;;;;5110487;28;20739;-72
2021/04/27 01:21:23;;;;;;;10.07;4.70;;;3.90;77.50;;;;;;5111752;28;20372;-72
2021/04/27 01:24:20;;;;;;;10.57;5.93;;;3.90;77.40;;;;;;5111298;28;20317;-72
2021/04/27 01:26:56;;;;;;;9.37;6.00;;;3.90;77.70;;;;;;5111060;28;20316;-72
2021/04/27 01:29:27;;;;;;;9.53;5.77;;;4.00;77.50;;;;;;5111514;28;20293;-73
2021/04/27 01:31:55;;;;;;;9.52;5.40;;;3.90;77.30;;;;;;5110504;28;20342;-72
2021/04/27 01:34:26;;;;;;;10.73;4.47;;;3.90;77.50;;;;;;5111568;28;20048;-72
2021/04/27 01:36:53;;;;;;;7.57;5.38;;;3.90;77.50;;;;;;5110907;28;20377;-72
2021/04/27 01:39:22;;;;;;;8.93;5.23;;;3.90;77.50;;;;;;5110582;28;20051;-72
2021/04/27 01:41:48;;;;;;;9.03;5.60;;;3.90;77.60;;;;;;5111077;28;20782;-72
2021/04/27 01:44:15;;;;;;;9.10;4.93;;;3.90;77.80;;;;;;5110948;28;20388;-71
2021/04/27 01:46:43;;;;;;;14.00;5.80;;;3.90;77.80;;;;;;5110290;28;20426;-72
2021/04/27 01:49:11;;;;;;;8.10;5.87;;;3.90;78.00;;;;;;5114364;28;20297;-72
2021/04/27 01:51:37;;;;;;;10.30;5.43;;;3.90;78.10;;;;;;5114901;28;20347;-72
2021/04/27 01:54:03;;;;;;;7.97;5.47;;;3.90;78.20;;;;;;5113343;28;20309;-72
2021/04/27 01:56:29;;;;;;;9.47;6.00;;;4.00;78.10;;;;;;5115122;28;20040;-72
2021/04/27 01:58:55;;;;;;;7.93;5.50;;;3.90;78.00;;;;;;5114542;28;20294;-72
2021/04/27 02:01:21;;;;;;;10.10;5.73;;;4.00;77.90;;;;;;5114159;28;20131;-72
2021/04/27 02:03:48;;;;;;;7.87;5.13;;;3.90;78.10;;;;;;5114553;28;20054;-72
2021/04/27 02:06:15;;;;;;;10.43;5.80;;;3.90;78.20;;;;;;5113751;28;20047;-72
2021/04/27 02:08:47;;;;;;;10.97;6.40;;;3.90;78.10;;;;;;5114536;28;20619;-73
2021/04/27 02:11:13;;;;;;;9.00;6.03;;;3.90;78.00;;;;;;5114581;28;20293;-73
2021/04/27 02:13:40;;;;;;;7.93;6.20;;;3.90;78.10;;;;;;5113862;28;20658;-73
2021/04/27 02:16:06;;;;;;;9.70;5.90;;;3.90;78.40;;;;;;5113984;28;20778;-73
2021/04/27 02:18:49;;;;;;;11.07;5.30;;;3.90;78.50;;;;;;5114439;28;20345;-73
2021/04/27 02:21:16;;;;;;;14.33;5.93;;;3.80;78.50;;;;;;5113589;28;20297;-73
2021/04/27 02:23:43;;;;;;;10.27;5.80;;;3.80;78.50;;;;;;5113936;28;20821;-73
2021/04/27 02:26:10;;;;;;;14.20;6.00;;;3.80;78.80;;;;;;5114014;28;20298;-73
2021/04/27 02:28:35;;;;;;;7.93;5.73;;;3.80;79.10;;;;;;5113454;28;20293;-73
2021/04/27 02:31:02;;;;;;;11.93;6.37;;;3.80;79.20;;;;;;5113571;28;20376;-73
2021/04/27 02:33:28;;;;;;;9.90;6.00;;;3.70;79.80;;;;;;5114349;28;20062;-73
2021/04/27 02:35:54;;;;;;;10.20;5.63;;;3.80;79.80;;;;;;5112954;28;20309;-73
2021/04/27 02:38:23;;;;;;;9.47;5.50;;;3.80;79.80;;;;;;5114146;28;20504;-73
2021/04/27 02:40:59;;;;;;;11.83;6.57;;;3.80;79.70;;;;;;5113870;28;20324;-74
2021/04/27 02:43:25;;;;;;;8.17;5.57;;;3.80;79.90;;;;;;5113252;28;20388;-74
2021/04/27 02:45:52;;;;;;;9.33;5.90;;;3.90;79.90;;;;;;5113758;28;20340;-73
2021/04/27 02:48:20;;;;;;;8.80;5.40;;;3.80;79.80;;;;;;5113060;28;20308;-73
2021/04/27 02:50:49;;;;;;;10.70;6.73;;;3.80;79.90;;;;;;5113537;28;20354;-74
2021/04/27 02:53:17;;;;;;;8.03;5.00;;;3.80;80.00;;;;;;5113610;28;20381;-74
2021/04/27 02:55:42;;;;;;;14.77;6.17;;;3.80;80.00;;;;;;5112834;28;20301;-74
2021/04/27 02:58:09;;;;;;;9.37;6.33;;;3.70;80.40;;;;;;5113477;28;20343;-73
2021/04/27 03:00:39;;;;;;;11.30;5.73;;;3.70;80.50;;;;;;5112735;28;20088;-73
2021/04/27 03:03:04;;;;;;;10.93;6.33;;;3.70;80.60;;;;;;5112262;28;20293;-73
2021/04/27 03:05:30;;;;;;;13.40;6.67;;;3.60;80.60;;;;;;5113612;28;20661;-73
2021/04/27 03:07:56;;;;;;;11.07;6.70;;;3.60;80.90;;;;;;5112997;28;20051;-74
2021/04/27 03:10:22;;;;;;;10.40;6.17;;;3.60;81.10;;;;;;5112910;28;20044;-74
2021/04/27 03:12:47;;;;;;;8.90;6.27;;;3.50;81.10;;;;;;5113239;28;20054;-74
2021/04/27 03:15:14;;;;;;;9.73;6.60;;;3.50;81.30;;;;;;5112786;28;20047;-73
2021/04/27 03:17:40;;;;;;;9.57;7.00;;;3.40;81.40;;;;;;5112706;28;20108;-74
2021/04/27 03:20:08;;;;;;;11.23;6.97;;;3.40;81.50;;;;;;5113206;28;20293;-73
2021/04/27 03:22:34;;;;;;;11.57;6.00;;;3.40;81.70;;;;;;5113214;28;20062;-74
2021/04/27 03:25:00;;;;;;;12.67;6.33;;;3.30;81.70;;;;;;5111823;28;20415;-73
2021/04/27 03:27:25;;;;;;;9.73;6.23;;;3.30;81.80;;;;;;5113044;28;20790;-73
2021/04/27 03:29:51;;;;;;;10.23;6.80;;;3.20;81.80;;;;;;5112325;28;20078;-73
2021/04/27 03:32:18;;;;;;;10.63;6.60;;;3.20;81.70;;;;;;5112275;28;20062;-73
2021/04/27 03:34:44;;;;;;;9.83;6.20;;;3.20;81.70;;;;;;5110533;28;20296;-73
2021/04/27 03:37:10;;;;;;;13.87;6.60;;;3.20;81.70;;;;;;5110827;28;20289;-73
2021/04/27 03:39:37;;;;;;;10.07;6.03;;;3.10;81.50;;;;;;5111896;28;20036;-73
2021/04/27 03:42:04;;;;;;;9.13;6.47;;;3.10;81.60;;;;;;5111089;28;20384;-73
2021/04/27 03:44:30;;;;;;;9.77;6.27;;;3.10;81.60;;;;;;5112394;28;20808;-73
2021/04/27 03:46:55;;;;;;;9.33;6.37;;;3.10;81.70;;;;;;5111555;28;20396;-73
2021/04/27 03:49:21;;;;;;;10.90;6.40;;;3.10;81.70;;;;;;5111279;28;20055;-73
2021/04/27 03:51:47;;;;;;;12.33;6.60;;;3.00;81.60;;;;;;5110679;28;20054;-73
2021/04/27 03:54:13;;;;;;;9.57;6.00;;;3.00;81.50;;;;;;5112294;28;20301;-73
2021/04/27 03:56:39;;;;;;;10.73;6.20;;;3.00;81.40;;;;;;5112584;28;20465;-73
2021/04/27 03:59:05;;;;;;;12.00;6.10;;;3.00;81.30;;;;;;5110602;28;20473;-73
2021/04/27 04:01:31;;;;;;;8.63;5.87;;;3.00;81.30;;;;;;5111182;28;20376;-73
2021/04/27 04:03:57;;;;;;;12.23;6.27;;;3.00;81.30;;;;;;5111538;28;20498;-73
2021/04/27 04:06:23;;;;;;;11.13;6.07;;;3.00;81.10;;;;;;5111085;28;20442;-73
2021/04/27 04:08:48;;;;;;;9.47;6.17;;;2.90;81.10;;;;;;5111492;28;20100;-72
2021/04/27 04:11:14;;;;;;;11.93;5.80;;;2.90;81.30;;;;;;5111769;28;20313;-73
2021/04/27 04:13:40;;;;;;;9.27;5.77;;;2.90;81.10;;;;;;5111526;28;20449;-72
2021/04/27 04:16:06;;;;;;;7.37;5.53;;;2.80;81.40;;;;;;5111891;28;20091;-72
2021/04/27 04:18:33;;;;;;;8.55;6.68;;;2.80;81.30;;;;;;5112439;28;20774;-73
2021/04/27 04:20:59;;;;;;;8.33;6.17;;;2.70;81.30;;;;;;5110145;28;20488;-73
2021/04/27 04:23:26;;;;;;;8.17;5.87;;;2.70;81.60;;;;;;5111458;28;20294;-73
2021/04/27 04:25:52;;;;;;;9.15;5.65;;;2.70;81.60;;;;;;5112013;28;20043;-73
2021/04/27 04:28:18;;;;;;;8.63;5.88;;;2.70;81.40;;;;;;5108009;28;20051;-73
2021/04/27 04:30:44;;;;;;;9.98;7.13;;;2.70;81.30;;;;;;5111527;28;20500;-73
2021/04/27 04:33:10;;;;;;;8.97;6.37;;;2.60;81.40;;;;;;5111744;28;20047;-71
2021/04/27 04:35:37;;;;;;;9.40;6.63;;;2.60;81.50;;;;;;5110583;28;20048;-73
2021/04/27 04:38:03;;;;;;;7.77;6.33;;;2.60;81.20;;;;;;5110999;28;20357;-72
2021/04/27 04:40:29;;;;;;;7.72;5.07;;;2.60;81.20;;;;;;5111850;28;20294;-72
2021/04/27 04:42:55;;;;;;;9.83;6.17;;;2.60;81.10;;;;;;5109803;28;20058;-73
2021/04/27 04:45:21;;;;;;;8.83;6.30;;;2.50;81.20;;;;;;5111571;28;20044;-74
2021/04/27 04:47:47;;;;;;;7.63;5.33;;;2.50;81.30;;;;;;5111308;28;20079;-74
2021/04/27 04:50:16;;;;;;;12.03;5.63;;;2.50;81.20;;;;;;5110648;28;20341;-74
2021/04/27 04:52:43;;;;;;;8.90;6.03;;;2.50;81.20;;;;;;5111312;28;20052;-72
2021/04/27 04:55:10;;;;;;;10.67;5.83;;;2.50;81.20;;;;;;5110532;28;20301;-73
2021/04/27 04:57:36;;;;;;;7.33;5.50;;;2.50;81.20;;;;;;5110841;28;20491;-73
2021/04/27 05:00:03;;;;;;;7.43;5.50;;;2.50;81.10;;;;;;5110463;28;20305;-71
2021/04/27 05:02:29;;;;;;;8.02;6.05;;;2.50;80.90;;;;;;5108166;28;20068;-73
2021/04/27 05:04:55;;;;;;;7.70;5.10;;;2.50;80.80;;;;;;5110864;28;20055;-72
2021/04/27 05:07:23;;;;;;;8.47;5.43;;;2.50;80.80;;;;;;5111050;28;20060;-72
2021/04/27 05:09:51;;;;;;;8.82;5.38;;;2.60;80.70;;;;;;5107517;28;20088;-72
2021/04/27 05:12:17;;;;;;;8.88;5.80;;;2.60;80.30;;;;;;5110563;28;20135;-72
2021/04/27 05:14:43;;;;;;;5.97;4.93;;;2.70;80.20;;;;;;5110933;28;20055;-72
2021/04/27 05:17:12;;;;;;;10.30;5.67;;;2.80;80.00;;;;;;5110154;28;20108;-73
2021/04/27 05:19:38;;;;;;;7.95;5.15;;;2.90;80.00;;;;;;5111385;28;20384;-72
2021/04/27 05:22:05;;;;;;;6.97;4.73;;;3.00;79.80;;;;;;5110616;28;20527;-72
2021/04/27 05:24:31;;;;;;;8.00;4.37;;;3.10;79.40;;;;;;5114376;28;20040;-72
2021/04/27 05:26:58;;;;;;;6.73;5.70;;;3.30;79.40;;;;;;5114311;28;20305;-72
2021/04/27 05:29:23;;;;;;;7.80;4.23;;;3.50;79.30;;;;;;5114536;28;20769;-73
2021/04/27 05:31:51;;;;;;;7.30;4.80;;;3.80;78.80;;;;;;5113948;28;20426;-73
2021/04/27 05:34:20;;;;;;;7.13;4.63;;;4.40;78.40;;;;;;5114762;28;20044;-73
2021/04/27 05:36:47;;;;;;;7.10;4.50;;;4.60;77.00;;;;;;5114040;28;20338;-73
2021/04/27 05:39:13;;;;;;;9.47;4.97;;;4.90;76.90;;;;;;5113768;28;20380;-73
2021/04/27 05:41:40;;;;;;;7.03;4.57;;;5.30;76.30;;;;;;5114733;28;20354;-73
2021/04/27 05:44:08;;;;;;;6.10;4.70;;;5.80;75.50;;;;;;5110819;28;20289;-73
2021/04/27 05:46:35;;;;;;;9.17;4.70;;;6.20;73.80;;;;;;5114185;28;20301;-73
2021/04/27 05:49:01;;;;;;;8.50;4.47;;;6.30;72.70;;;;;;5113977;28;20303;-73
2021/04/27 05:51:27;;;;;;;7.97;4.93;;;6.40;72.60;;;;;;5113993;28;20317;-73
2021/04/27 05:53:53;;;;;;;7.03;4.77;;;6.40;72.10;;;;;;5114351;28;20297;-73
2021/04/27 05:56:19;;;;;;;9.07;4.43;;;6.50;71.40;;;;;;5114060;28;20309;-74
2021/04/27 05:58:44;;;;;;;7.57;4.50;;;6.40;70.80;;;;;;5113227;28;20055;-73
2021/04/27 06:01:12;;;;;;;4.73;4.10;;;6.40;71.40;;;;;;5114189;28;20100;-74
2021/04/27 06:03:38;;;;;;;8.20;4.37;;;6.40;70.70;;;;;;5114429;28;20089;-73
2021/04/27 06:06:04;;;;;;;6.90;4.07;;;6.20;71.00;;;;;;5110209;28;20304;-72
2021/04/27 06:08:30;;;;;;;6.77;3.87;;;6.00;70.70;;;;;;5114288;28;20305;-72
2021/04/27 06:10:57;;;;;;;5.17;4.17;;;5.80;70.70;;;;;;5113498;28;20346;-73
2021/04/27 06:13:23;;;;;;;6.77;3.67;;;5.70;71.30;;;;;;5113282;28;20039;-72
2021/04/27 06:15:48;;;;;;;6.63;4.37;;;5.80;71.30;;;;;;5113779;28;20297;-74
2021/04/27 06:18:14;;;;;;;6.43;4.00;;;6.00;70.50;;;;;;5114132;28;20111;-72
2021/04/27 06:20:40;;;;;;;9.70;3.57;;;6.20;70.00;;;;;;5113256;28;20040;-73
2021/04/27 06:23:06;;;;;;;5.17;3.40;;;6.30;69.50;;;;;;5114192;28;20131;-73
2021/04/27 06:25:32;;;;;;;6.13;3.23;;;6.40;68.60;;;;;;5114505;28;20423;-74
2021/04/27 06:27:59;;;;;;;5.97;3.73;;;6.40;68.70;;;;;;5112464;28;20404;-73
2021/04/27 06:30:25;;;;;;;8.23;3.40;;;6.40;68.80;;;;;;5114082;28;20492;-74
2021/04/27 06:32:53;;;;;;;7.93;3.93;;;6.50;68.10;;;;;;5113756;28;20307;-75
2021/04/27 06:35:25;;;;;;;4.13;3.20;;;6.60;67.70;;;;;;5111421;28;20440;-75
2021/04/27 06:37:54;;;;;;;5.67;3.60;;;6.70;66.70;;;;;;5113931;28;20302;-75
2021/04/27 06:40:20;;;;;;;4.20;2.90;;;6.70;66.60;;;;;;5113878;28;20850;-75
2021/04/27 06:42:46;;;;;;;4.10;2.93;;;7.00;66.20;;;;;;5112572;28;20773;-75
2021/04/27 06:45:12;;;;;;;6.00;2.73;;;7.40;64.60;;;;;;5111648;28;20308;-75
2021/04/27 06:47:38;;;;;;;5.97;2.60;;;7.50;63.60;;;;;;5111083;28;20446;-75
2021/04/27 06:50:06;;;;;;;3.63;2.30;;;7.50;62.40;;;;;;5111581;28;20299;-75
2021/04/27 06:52:35;;;;;;;4.07;2.73;;;7.70;63.00;;;;;;5111576;28;20301;-75
2021/04/27 06:55:03;;;;;;;3.30;2.80;;;7.90;61.90;;;;;;5110842;28;20305;-75
2021/04/27 06:57:28;;;;;;;2.83;2.53;;;8.20;62.00;;;;;;5111590;28;20309;-74
2021/04/27 06:59:54;;;;;;;3.10;2.37;;;8.50;61.30;;;;;;5112120;28;20301;-74
2021/04/27 07:02:20;;;;;;;4.80;2.70;;;8.90;59.70;;;;;;5112636;28;20043;-74
2021/04/27 07:04:45;;;;;;;5.47;2.80;;;9.00;58.60;;;;;;5113182;28;20058;-75
2021/04/27 07:07:11;;;;;;;7.27;3.03;;;9.20;57.90;;;;;;5113319;28;20058;-75
2021/04/27 07:09:37;;;;;;;4.03;2.57;;;9.20;57.10;;;;;;5112277;28;20104;-75
2021/04/27 07:12:04;;;;;;;6.20;2.87;;;9.50;56.60;;;;;;5112773;28;20052;-77
2021/04/27 07:14:30;;;;;;;5.27;2.27;;;9.60;55.70;;;;;;5112688;28;20378;-76
2021/04/27 07:16:56;;;;;;;4.60;3.07;;;9.70;54.80;;;;;;5111702;28;20305;-77
2021/04/27 07:19:22;;;;;;;5.10;2.40;;;9.80;54.80;;;;;;5113456;28;20651;-76
2021/04/27 07:21:49;;;;;;;4.17;2.50;;;10.10;54.20;;;;;;5113025;28;20071;-76
2021/04/27 07:24:14;;;;;;;3.50;2.60;;;10.40;53.50;;;;;;5112170;28;20056;-76
2021/04/27 07:26:45;;;;;;;6.10;2.43;;;10.50;53.70;;;;;;5112597;28;20052;-76
2021/04/27 07:29:12;;;;;;;5.10;2.40;;;10.50;53.10;;;;;;5112706;28;20051;-76
2021/04/27 07:31:41;;;;;;;4.07;2.50;;;10.60;52.30;;;;;;5112013;28;20483;-76
2021/04/27 07:34:07;;;;;;;6.60;2.90;;;10.60;51.60;;;;;;5112750;28;20054;-77
2021/04/27 07:36:35;;;;;;;4.77;2.53;;;10.60;51.90;;;;;;5112789;28;20051;-75
2021/04/27 07:39:04;;;;;;;5.30;2.63;;;10.80;50.60;;;;;;5111331;28;20050;-75
2021/04/27 07:41:30;;;;;;;9.13;2.77;;;10.80;49.90;;;;;;5112559;28;20043;-76
2021/04/27 07:43:56;;;;;;;4.33;2.80;;;10.80;49.90;;;;;;5111040;28;20096;-74
2021/04/27 07:46:22;;;;;;;5.00;2.67;;;10.80;49.50;;;;;;5112138;28;20051;-75
2021/04/27 07:48:47;;;;;;;5.73;2.63;;;10.80;48.60;;;;;;5112426;28;20050;-75
2021/04/27 07:51:14;;;;;;;3.73;2.50;;;10.80;47.90;;;;;;5111560;28;20500;-75
2021/04/27 07:53:40;;;;;;;5.00;2.40;;;11.10;48.40;;;;;;5112533;28;20071;-75
2021/04/27 07:56:07;;;;;;;4.97;2.47;;;11.50;47.70;;;;;;5111770;28;20055;-75
2021/04/27 07:58:33;;;;;;;4.07;2.60;;;11.70;47.20;;;;;;5111584;28;20047;-75
2021/04/27 08:00:59;;;;;;;2.93;2.20;;;11.90;47.40;;;;;;5111842;28;20109;-74
2021/04/27 08:03:24;;;;;;;8.37;2.50;;;12.20;46.60;;;;;;5112060;28;20051;-74
2021/04/27 08:05:51;;;;;;;6.90;3.07;;;12.40;46.40;;;;;;5111415;28;20043;-75
2021/04/27 08:08:16;;;;;;;5.13;2.73;;;12.70;46.10;;;;;;5112090;28;20054;-75
2021/04/27 08:10:42;;;;;;;4.03;2.83;;;13.10;45.40;;;;;;5111923;28;20047;-75
2021/04/27 08:13:08;;;;;;;4.93;2.40;;;13.50;45.00;;;;;;5110918;28;20044;-75
2021/04/27 08:15:35;;;;;;;3.73;2.37;;;13.90;44.20;;;;;;5112373;28;20104;-76
2021/04/27 08:18:02;;;;;;;5.20;2.90;;;14.00;44.10;;;;;;5111451;28;20770;-76
2021/04/27 08:20:30;;;;;;;4.70;2.90;;;14.30;43.90;;;;;;5110869;28;20491;-76
2021/04/27 08:22:56;;;;;;;10.87;4.07;;;14.70;43.10;;;;;;5111554;28;20089;-76
2021/04/27 08:25:22;;;;;;;5.07;2.87;;;14.90;43.00;;;;;;5112026;28;20052;-76
2021/04/27 08:27:49;;;;;;;5.53;2.90;;;15.10;42.80;;;;;;5111000;28;20059;-76
2021/04/27 08:30:18;;;;;;;4.50;2.90;;;15.10;41.70;;;;;;5111247;28;20052;-75
2021/04/27 08:32:45;;;;;;;4.53;2.77;;;14.90;41.30;;;;;;5111316;28;20059;-75
2021/04/27 08:35:11;;;;;;;4.97;2.90;;;14.90;41.20;;;;;;5110600;28;20104;-75
2021/04/27 08:37:37;;;;;;;6.17;4.03;;;14.90;41.00;;;;;;5111808;28;20066;-75
2021/04/27 08:40:05;;;;;;;5.77;3.13;;;14.80;40.00;;;;;;5110355;28;20127;-77
2021/04/27 08:42:33;;;;;;;5.00;2.87;;;14.70;40.70;;;;;;5112197;28;20043;-75
2021/04/27 08:44:59;;;;;;;5.30;2.83;;;14.80;39.80;;;;;;5111274;28;20058;-76
2021/04/27 08:47:25;;;;;;;5.47;2.97;;;14.80;39.20;;;;;;5110989;28;20384;-76
2021/04/27 08:49:51;;;;;;;4.87;2.30;;;15.00;39.40;;;;;;5111463;28;20044;-77
2021/04/27 08:52:18;;;;;;;7.60;2.90;;;15.20;39.50;;;;;;5111335;28;20077;-75
2021/04/27 08:54:43;;;;;;;5.23;2.50;;;15.40;39.30;;;;;;5110350;28;20485;-76
2021/04/27 08:57:11;;;;;;;3.30;2.43;;;15.70;39.20;;;;;;5111474;28;20545;-77
2021/04/27 08:59:37;;;;;;;6.50;2.60;;;15.80;38.40;;;;;;5115912;28;20040;-77
2021/04/27 09:02:06;;;;;;;3.10;2.37;;;15.80;37.50;;;;;;5114329;27;20056;-77
2021/04/27 09:04:49;;;;;;;6.30;2.60;;;16.00;38.00;;;;;;5115862;28;20040;-76
2021/04/27 09:07:20;;;;;;;3.20;2.10;;;16.10;35.70;;;;;;5115249;28;20247;-76
2021/04/27 09:09:48;;;;;;;4.43;2.08;;;16.10;36.60;;;;;;5114736;28;20043;-76
2021/04/27 09:12:23;;;;;;;5.47;2.17;;;16.10;36.50;;;;;;5115665;28;20397;-76
2021/04/27 09:14:49;;;;;;;5.33;2.53;;;15.80;34.60;;;;;;5115207;28;20055;-76
2021/04/27 09:17:15;;;;;;;3.40;2.27;;;15.70;35.00;;;;;;5114156;28;20132;-77
2021/04/27 09:19:42;;;;;;;3.87;2.20;;;15.60;35.00;;;;;;5115244;28;20055;-78
2021/04/27 09:22:30;;;;;;;3.60;2.33;;;15.60;33.90;;;;;;5114856;28;20488;-78
2021/04/27 09:25:03;;;;;;;6.07;2.47;;;15.60;34.30;;;;;;5114892;28;20048;-77
2021/04/27 09:27:35;;;;;;;4.40;2.37;;;15.60;33.80;;;;;;5115376;28;20055;-77
2021/04/27 09:30:10;;;;;;;5.70;2.07;;;15.60;33.20;;;;;;5113774;28;20051;-77
2021/04/27 09:32:40;;;;;;;11.67;3.00;;;15.60;33.30;;;;;;5115445;28;20181;-77
2021/04/27 09:35:24;;;;;;;4.50;2.00;;;15.70;33.20;;;;;;5114949;28;20104;-78
2021/04/27 09:38:05;;;;;;;4.97;2.50;;;15.70;33.00;;;;;;5114260;28;20043;-77
2021/04/27 09:40:31;;;;;;;3.40;2.45;;;15.50;31.20;;;;;;5115247;28;20048;-75
2021/04/27 09:43:06;;;;;;;4.50;2.60;;;15.40;33.00;;;;;;5114441;28;20050;-75
2021/04/27 09:45:42;;;;;;;3.27;2.17;;;15.30;31.70;;;;;;5114177;28;20484;-73
2021/04/27 09:48:09;;;;;;;7.57;2.77;;;15.30;32.30;;;;;;5114592;28;20077;-74
2021/04/27 09:50:34;;;;;;;4.20;2.30;;;15.20;32.50;;;;;;5114113;28;20096;-75
2021/04/27 09:53:01;;;;;;;4.13;2.50;;;15.20;32.20;;;;;;5114271;28;20491;-73
2021/04/27 09:55:31;;;;;;;6.07;2.77;;;15.00;32.00;;;;;;5114757;28;20100;-73
2021/04/27 09:57:58;;;;;;;3.73;2.17;;;15.00;32.30;;;;;;5113697;28;20052;-73
2021/04/27 10:00:55;;;;;;;5.27;2.53;;;14.90;32.30;;;;;;5114813;28;20054;-73
2021/04/27 10:03:21;;;;;;;7.67;2.50;;;14.80;31.40;;;;;;5113798;28;20040;-73
2021/04/27 10:05:46;;;;;;;3.90;2.60;;;14.70;32.40;;;;;;5113010;28;20054;-74
2021/04/27 10:08:13;;;;;;;6.07;2.50;;;14.50;32.50;;;;;;5113667;28;20138;-73
2021/04/27 10:10:41;;;;;;;4.77;2.50;;;14.40;32.60;;;;;;5114596;28;20115;-73
2021/04/27 10:13:09;;;;;;;3.90;2.00;;;14.30;32.70;;;;;;5113058;28;20043;-74
2021/04/27 10:15:35;;;;;;;5.27;2.80;;;14.20;32.90;;;;;;5113991;28;20048;-73
2021/04/27 10:18:04;;;;;;;4.97;3.30;;;14.00;32.70;;;;;;5112457;28;20047;-73
2021/04/27 10:20:31;;;;;;;3.57;2.67;;;13.90;32.70;;;;;;5113282;28;20051;-73
2021/04/27 10:22:57;;;;;;;5.70;2.37;;;13.80;33.00;;;;;;5113660;28;20051;-73
2021/04/27 10:25:26;;;;;;;3.77;2.60;;;13.90;32.90;;;;;;5113897;28;20054;-72
2021/04/27 10:27:58;;;;;;;3.10;2.30;;;14.00;33.20;;;;;;5112843;28;20493;-72
2021/04/27 10:30:23;;;;;;;3.75;2.72;;;14.00;33.20;;;;;;5113892;28;20493;-74
2021/04/27 10:33:04;;;;;;;4.07;2.17;;;14.00;32.20;;;;;;5112218;28;20077;-72
2021/04/27 10:35:32;;;;;;;7.03;2.83;;;13.90;32.20;;;;;;5113752;28;20130;-72
2021/04/27 10:38:01;;;;;;;4.77;2.70;;;13.90;32.30;;;;;;5112825;28;20156;-72
2021/04/27 10:40:50;;;;;;;3.20;2.33;;;13.90;31.90;;;;;;5112745;28;20122;-73
2021/04/27 10:43:28;;;;;;;4.33;2.10;;;14.00;32.30;;;;;;5111679;28;20043;-71
2021/04/27 10:45:58;;;;;;;3.33;2.50;;;14.20;33.10;;;;;;5111704;28;20039;-72
2021/04/27 10:48:37;;;;;;;4.67;2.20;;;14.30;32.20;;;;;;5110030;28;20044;-72
2021/04/27 10:51:21;;;;;;;3.87;2.50;;;14.30;32.20;;;;;;5112702;28;20064;-72
2021/04/27 10:54:02;;;;;;;3.57;2.50;;;14.30;33.00;;;;;;5110220;28;20048;-72
2021/04/27 10:56:41;;;;;;;6.90;2.70;;;14.30;32.00;;;;;;5111014;28;20167;-72
2021/04/27 10:59:14;;;;;;;5.03;2.50;;;14.40;32.30;;;;;;5111277;28;20039;-72
2021/04/27 11:01:41;;;;;;;6.57;3.20;;;14.50;32.20;;;;;;5112506;28;20374;-72
2021/04/27 11:04:26;;;;;;;6.37;2.90;;;14.50;32.30;;;;;;5113328;28;20043;-74
2021/04/27 11:07:11;;;;;;;3.23;2.60;;;14.60;32.30;;;;;;5113177;28;20423;-74
2021/04/27 11:09:38;;;;;;;3.90;2.67;;;14.60;32.20;;;;;;5112647;28;20101;-73
2021/04/27 11:12:28;;;;;;;3.57;2.67;;;14.50;32.00;;;;;;5112555;28;20431;-73
2021/04/27 11:15:09;;;;;;;6.17;2.37;;;14.50;31.60;;;;;;5112416;28;20059;-74
2021/04/27 11:17:39;;;;;;;6.07;2.37;;;14.60;32.70;;;;;;5112933;28;20059;-73
2021/04/27 11:20:08;;;;;;;4.50;2.13;;;14.60;31.80;;;;;;5111562;28;20316;-73
2021/04/27 11:22:36;;;;;;;6.03;2.43;;;14.60;32.10;;;;;;5111991;28;20047;-72
2021/04/27 11:25:08;;;;;;;3.17;2.27;;;14.60;31.40;;;;;;5112248;28;20093;-73
2021/04/27 11:27:38;;;;;;;5.77;2.73;;;14.70;31.70;;;;;;5112698;28;20052;-72
2021/04/27 11:30:11;;;;;;;5.20;2.57;;;14.70;31.00;;;;;;5112041;28;20493;-74
2021/04/27 11:32:40;;;;;;;3.50;2.63;;;14.90;31.20;;;;;;5112710;28;20386;-72
2021/04/27 11:35:09;;;;;;;3.70;2.73;;;14.90;30.80;;;;;;5112029;28;20379;-71
2021/04/27 11:37:38;;;;;;;4.70;2.50;;;14.90;30.60;;;;;;5111351;28;20134;-73
2021/04/27 11:40:29;;;;;;;3.87;2.90;;;14.90;30.80;;;;;;5112030;28;20122;-72
2021/04/27 11:43:03;;;;;;;5.33;2.70;;;15.00;31.40;;;;;;5111110;28;20500;-72
2021/04/27 11:45:32;;;;;;;3.83;2.50;;;15.10;31.10;;;;;;5112249;28;20181;-72
2021/04/27 11:47:59;;;;;;;3.73;3.00;;;15.20;30.80;;;;;;5111650;28;20052;-72
2021/04/27 11:50:26;;;;;;;26.90;15.20;;;15.00;30.50;;;;;;5111656;28;20055;-72
2021/04/27 11:53:01;;;;;;;4.80;2.80;;;15.00;31.10;;;;;;5112083;28;20377;-72
2021/04/27 11:55:44;;;;;;;5.60;2.70;;;15.10;31.00;;;;;;5111832;28;20437;-72
2021/04/27 11:58:14;;;;;;;5.77;2.53;;;15.10;30.10;;;;;;5111583;28;20047;-72
2021/04/27 12:00:46;;;;;;;3.75;2.63;;;15.00;30.00;;;;;;5112386;28;20051;-72
2021/04/27 12:03:13;;;;;;;7.32;3.15;;;14.90;30.20;;;;;;5112134;28;20096;-72
2021/04/27 12:05:38;;;;;;;4.77;3.20;;;14.90;30.00;;;;;;5111491;28;20072;-72
2021/04/27 12:08:34;;;;;;;4.80;2.80;;;14.90;29.70;;;;;;5111033;28;20176;-72
2021/04/27 12:11:32;;;;;;;4.53;2.83;;;14.90;29.40;;;;;;5099070;28;20051;-72
2021/04/27 12:14:16;;;;;;;4.53;3.20;;;14.80;29.70;;;;;;5111570;28;20078;-72
2021/04/27 12:16:43;;;;;;;3.37;2.67;;;14.90;30.50;;;;;;5111264;27;20077;-71
2021/04/27 12:19:15;;;;;;;3.80;2.70;;;15.00;29.80;;;;;;5108063;28;20054;-72
2021/04/27 12:22:07;;;;;;;5.63;2.67;;;15.10;29.50;;;;;;5111322;28;20040;-72
2021/04/27 12:24:40;;;;;;;5.10;3.00;;;15.20;29.40;;;;;;5108279;28;20131;-73
2021/04/27 12:27:10;;;;;;;3.90;2.77;;;15.10;29.30;;;;;;5110193;28;20515;-72
2021/04/27 12:29:41;;;;;;;3.67;2.90;;;15.00;29.00;;;;;;5111224;28;20404;-72
2021/04/27 12:32:15;;;;;;;5.22;2.88;;;14.90;29.10;;;;;;5110606;28;20051;-74
2021/04/27 12:35:01;;;;;;;3.97;2.80;;;14.80;30.00;;;;;;5111418;28;20433;-73
2021/04/27 12:37:29;;;;;;;5.37;3.00;;;14.90;29.80;;;;;;5111178;28;20488;-73
2021/04/27 12:39:57;;;;;;;5.27;2.90;;;15.00;29.80;;;;;;5110113;28;20451;-74
2021/04/27 12:42:29;;;;;;;5.07;2.47;;;15.10;29.60;;;;;;5110893;28;20089;-73
2021/04/27 12:44:59;;;;;;;;;;;15.20;29.00;;;;;;5111101;28;20135;-73
2021/04/27 12:47:30;;;;;;;6.27;3.37;;;15.30;29.80;;;;;;5110487;28;20355;-73
2021/04/27 12:50:00;;;;;;;7.20;4.10;;;15.50;29.30;;;;;;5110896;28;20126;-73
2021/04/27 12:52:26;;;;;;;4.63;3.63;;;15.60;29.20;;;;;;5111186;28;20048;-72
2021/04/27 12:54:57;;;;;;;6.90;4.10;;;15.60;29.00;;;;;;5110157;28;20043;-73
2021/04/27 12:57:23;;;;;;;4.03;3.63;;;15.50;29.20;;;;;;5111105;28;20039;-73